Edna, Kansas
Current Conditions -  °F | °C
As of 1:52 AM on Wednesday 26 Nov 2014 (Local Time) from KCFV Reporting Station
Overcast Overcast  
Wind Chill: 33°   Ceiling: 10000
Heat Index: 38°   Visibility: 10mi
Dew Point: 26°   Wind: 7mph
Humidity: 62%   Direction: 160°SSE
Pressure: 29.97"   Gusts: NA
Location:  37.06°N, 95.36°W
Report Text: KCFV 260752Z AUTO 16006KT 10SM OVC100 03/M03 A2997 RMK AO2 SLP153 T00331033
Loading
Personal Weather Stations






























Interactive Weather Map New forecast layout! Learn more

10-Day Weather Forecast

Advertisements
Track Severe Weather on mobile